Time;durP1;ratioP1;P1;durP2;ratioP2;P2;SDS_P1;SDS_P2;PMS_P1;PMS_P2;Temp;Humidity;BMP_temperature;BMP_pressure;BME280_temperature;BME280_humidity;BME280_pressure;Samples;Min_cycle;Max_cycle;Signal;HPM_P1;HPM_P2
2023/09/14 00:00:47;;;;;;;7.28;3.60;;;13.60;99.90;;;;;;4861095;29;20418;-91
2023/09/14 00:03:12;;;;;;;7.60;3.97;;;12.80;99.90;;;;;;4860051;29;20592;-91
2023/09/14 00:05:40;;;;;;;7.72;3.47;;;12.90;99.90;;;;;;4860917;29;20415;-91
2023/09/14 00:08:05;;;;;;;6.20;2.70;;;12.70;99.90;;;;;;4860431;29;20419;-92
2023/09/14 00:10:32;;;;;;;5.38;2.92;;;12.60;99.90;;;;;;4860708;29;20467;-91
2023/09/14 00:12:58;;;;;;;5.47;3.15;;;12.80;99.90;;;;;;4860703;29;20450;-91
2023/09/14 00:15:24;;;;;;;7.50;3.42;;;13.20;99.90;;;;;;4860052;29;20467;-92
2023/09/14 00:17:49;;;;;;;6.20;3.15;;;13.10;99.90;;;;;;4860272;29;20415;-91
2023/09/14 00:20:22;;;;;;;7.30;3.50;;;13.00;99.90;;;;;;4860037;29;20414;-90
2023/09/14 00:22:52;;;;;;;6.18;3.20;;;12.60;99.90;;;;;;4860857;29;20450;-91
2023/09/14 00:25:18;;;;;;;8.93;2.92;;;12.50;99.90;;;;;;4859971;29;20475;-94
2023/09/14 00:27:44;;;;;;;4.57;2.63;;;12.30;99.90;;;;;;4860081;29;20936;-93
2023/09/14 00:30:10;;;;;;;5.53;3.05;;;12.40;99.90;;;;;;4860307;29;20518;-92
2023/09/14 00:32:40;;;;;;;7.10;3.00;;;12.30;99.90;;;;;;4859806;29;20434;-91
2023/09/14 00:35:07;;;;;;;7.05;3.15;;;12.30;99.90;;;;;;4860578;29;20911;-92
2023/09/14 00:37:33;;;;;;;7.93;3.37;;;12.30;99.90;;;;;;4859518;29;20454;-90
2023/09/14 00:39:59;;;;;;;8.07;3.33;;;12.50;99.90;;;;;;4860557;29;20451;-93
2023/09/14 00:42:25;;;;;;;6.77;3.57;;;12.00;99.90;;;;;;4859408;29;20478;-92
2023/09/14 00:44:51;;;;;;;5.68;3.00;;;12.10;99.90;;;;;;4860232;29;21195;-91
2023/09/14 00:47:17;;;;;;;6.20;2.40;;;12.00;99.90;;;;;;4860317;29;20461;-91
2023/09/14 00:49:42;;;;;;;7.30;3.10;;;11.80;99.90;;;;;;4859372;29;20442;-91
2023/09/14 00:52:10;;;;;;;6.38;2.47;;;11.80;99.90;;;;;;4860199;29;20419;-91
2023/09/14 00:54:38;;;;;;;5.40;2.40;;;11.70;99.90;;;;;;4859628;29;20445;-91
2023/09/14 00:57:04;;;;;;;7.75;2.90;;;11.70;99.90;;;;;;4860514;29;20415;-93
2023/09/14 00:59:32;;;;;;;7.10;2.80;;;11.30;99.90;;;;;;4859250;29;20421;-91
2023/09/14 01:01:58;;;;;;;5.75;2.80;;;11.60;99.90;;;;;;4860233;29;20612;-91
2023/09/14 01:04:29;;;;;;;7.55;2.88;;;11.70;99.90;;;;;;4859567;29;20446;-91
2023/09/14 01:06:55;;;;;;;7.53;3.05;;;11.50;99.90;;;;;;4859553;29;20415;-91
2023/09/14 01:09:21;;;;;;;8.43;3.05;;;11.40;99.90;;;;;;4859984;29;20914;-90
2023/09/14 01:11:46;;;;;;;8.30;2.97;;;11.40;99.90;;;;;;4859305;29;20569;-91
2023/09/14 01:14:28;;;;;;;6.00;2.77;;;11.30;99.90;;;;;;4860186;29;20426;-91
2023/09/14 01:17:08;;;;;;;5.65;3.15;;;11.20;99.90;;;;;;4859141;29;20427;-90
2023/09/14 01:19:42;;;;;;;6.70;3.45;;;11.20;99.90;;;;;;4859979;29;20425;-91
2023/09/14 01:22:26;;;;;;;9.55;4.78;;;11.10;99.90;;;;;;4859673;29;20775;-89
2023/09/14 01:25:13;;;;;;;7.10;4.37;;;11.10;99.90;;;;;;4858407;29;21017;-91
2023/09/14 01:27:39;;;;;;;6.03;4.10;;;11.00;99.90;;;;;;4860065;29;20419;-91
2023/09/14 01:30:06;;;;;;;7.82;4.85;;;11.20;99.90;;;;;;4859166;29;20430;-90
2023/09/14 01:32:32;;;;;;;8.87;3.40;;;10.70;99.90;;;;;;4859550;29;20629;-89
2023/09/14 01:34:58;;;;;;;5.37;3.23;;;10.70;99.90;;;;;;4859325;29;20443;-89
2023/09/14 01:37:24;;;;;;;7.03;3.80;;;10.60;99.90;;;;;;4859007;29;20982;-91
2023/09/14 01:39:53;;;;;;;7.18;3.75;;;10.60;99.90;;;;;;4859828;29;20473;-91
2023/09/14 01:42:21;;;;;;;7.57;4.13;;;10.50;99.90;;;;;;4859240;29;20559;-89
2023/09/14 01:44:48;;;;;;;9.90;4.43;;;11.40;99.90;;;;;;4859625;29;20419;-90
2023/09/14 01:47:13;;;;;;;9.93;4.83;;;10.60;99.90;;;;;;4858825;29;20427;-90
2023/09/14 01:49:39;;;;;;;12.47;5.77;;;10.60;99.90;;;;;;4859411;29;20423;-91
2023/09/14 01:52:05;;;;;;;5.05;3.53;;;10.40;99.90;;;;;;4859089;29;20419;-89
2023/09/14 01:54:31;;;;;;;4.47;2.67;;;10.30;99.90;;;;;;4858924;29;20495;-90
2023/09/14 01:56:56;;;;;;;7.87;2.97;;;10.30;99.90;;;;;;4858971;29;20426;-90
2023/09/14 01:59:22;;;;;;;9.03;3.87;;;10.10;99.90;;;;;;4859244;29;20868;-91
2023/09/14 02:01:48;;;;;;;9.48;5.00;;;10.10;99.90;;;;;;4859208;29;20982;-90
2023/09/14 02:04:13;;;;;;;8.23;4.93;;;10.50;99.90;;;;;;4858669;29;20435;-90
2023/09/14 02:06:39;;;;;;;9.93;5.03;;;10.20;99.90;;;;;;4859718;29;20659;-92
2023/09/14 02:09:05;;;;;;;6.15;4.70;;;10.10;99.90;;;;;;4858601;29;20419;-89
2023/09/14 02:11:31;;;;;;;7.87;4.47;;;10.70;99.90;;;;;;4858874;29;20510;-90
2023/09/14 02:13:56;;;;;;;7.80;4.57;;;10.00;99.90;;;;;;4858891;29;20415;-90
2023/09/14 02:16:22;;;;;;;10.27;6.33;;;10.10;99.90;;;;;;4858201;29;20423;-91
2023/09/14 02:18:48;;;;;;;7.35;4.25;;;9.60;99.90;;;;;;4859056;29;20427;-89
2023/09/14 02:21:16;;;;;;;8.57;4.37;;;10.10;99.90;;;;;;4858500;29;20435;-91
2023/09/14 02:23:42;;;;;;;14.52;7.50;;;9.70;99.90;;;;;;4859095;29;20598;-89
2023/09/14 02:26:08;;;;;;;7.05;4.05;;;9.40;99.90;;;;;;4857990;29;20482;-90
2023/09/14 02:28:33;;;;;;;6.85;4.65;;;9.80;99.90;;;;;;4858702;29;21017;-89
2023/09/14 02:31:04;;;;;;;8.33;5.73;;;9.90;99.90;;;;;;4858755;29;20415;-90
2023/09/14 02:33:30;;;;;;;6.30;4.20;;;9.70;99.90;;;;;;4858451;29;20937;-90
2023/09/14 02:35:56;;;;;;;8.35;4.70;;;9.60;99.90;;;;;;4858825;29;20430;-89
2023/09/14 02:38:22;;;;;;;7.85;5.30;;;9.80;99.90;;;;;;4877613;29;20430;-90
2023/09/14 02:40:47;;;;;;;8.87;5.40;;;10.20;99.90;;;;;;4862130;29;20798;-89
2023/09/14 02:43:13;;;;;;;8.83;5.90;;;9.90;99.90;;;;;;4861663;29;20446;-90
2023/09/14 02:45:39;;;;;;;12.73;8.75;;;9.60;99.90;;;;;;4862398;29;20429;-91
2023/09/14 02:48:05;;;;;;;15.60;12.40;;;10.00;99.90;;;;;;4861404;29;20482;-90
2023/09/14 02:50:30;;;;;;;13.80;10.65;;;9.50;99.90;;;;;;4862458;29;20434;-90
2023/09/14 02:52:56;;;;;;;16.80;12.40;;;9.50;99.90;;;;;;4862248;29;20415;-89
2023/09/14 02:55:22;;;;;;;15.27;11.90;;;9.60;99.90;;;;;;4861539;29;20859;-92
2023/09/14 02:57:48;;;;;;;14.35;12.02;;;10.00;99.90;;;;;;4861694;29;20776;-89
2023/09/14 03:00:17;;;;;;;17.10;13.40;;;9.40;99.90;;;;;;4861476;29;20410;-90
2023/09/14 03:02:43;;;;;;;15.97;12.50;;;9.40;99.90;;;;;;4862157;29;20842;-90
2023/09/14 03:05:09;;;;;;;14.20;10.77;;;9.30;99.90;;;;;;4861200;29;20486;-89
2023/09/14 03:07:35;;;;;;;12.65;10.38;;;9.30;99.90;;;;;;4862133;29;20415;-90
2023/09/14 03:10:01;;;;;;;14.55;10.98;;;9.40;99.90;;;;;;4861677;29;20764;-90
2023/09/14 03:12:26;;;;;;;10.03;8.97;;;9.30;99.90;;;;;;4861577;29;20411;-91
2023/09/14 03:14:52;;;;;;;12.13;9.87;;;9.30;99.90;;;;;;4861293;29;20422;-90
2023/09/14 03:17:18;;;;;;;12.48;9.80;;;9.20;99.90;;;;;;4860861;29;20415;-90
2023/09/14 03:19:44;;;;;;;12.40;9.50;;;9.20;99.90;;;;;;4862018;29;20426;-89
2023/09/14 03:22:10;;;;;;;19.50;12.60;;;9.50;99.90;;;;;;4860735;29;21576;-90
2023/09/14 03:24:36;;;;;;;12.98;8.38;;;9.20;99.90;;;;;;4861528;29;20449;-90
2023/09/14 03:27:01;;;;;;;13.07;9.40;;;9.30;99.90;;;;;;4876643;29;20926;-89
2023/09/14 03:29:28;;;;;;;14.90;11.07;;;9.20;99.90;;;;;;4861786;29;20419;-90
2023/09/14 03:31:53;;;;;;;11.50;8.73;;;9.30;99.90;;;;;;4860784;29;20435;-91
2023/09/14 03:34:19;;;;;;;80.60;11.37;;;9.20;99.90;;;;;;4860776;29;20430;-90
2023/09/14 03:36:45;;;;;;;8.38;7.20;;;9.40;99.90;;;;;;4860837;29;20444;-90
2023/09/14 03:39:12;;;;;;;9.13;6.63;;;9.50;99.90;;;;;;4860773;29;20510;-91
2023/09/14 03:41:38;;;;;;;7.03;6.15;;;9.20;99.90;;;;;;4861552;29;20418;-90
2023/09/14 03:44:04;;;;;;;9.65;7.30;;;8.90;99.90;;;;;;4860574;29;20442;-91
2023/09/14 03:46:30;;;;;;;26.00;7.03;;;9.00;99.90;;;;;;4860972;29;20450;-89
2023/09/14 03:48:56;;;;;;;42.88;6.97;;;9.20;99.90;;;;;;4860105;29;20441;-88
2023/09/14 03:51:21;;;;;;;9.20;5.47;;;8.90;99.90;;;;;;4861037;29;20431;-89
2023/09/14 03:53:47;;;;;;;7.68;5.18;;;8.90;99.90;;;;;;4860710;29;20407;-90
2023/09/14 03:56:14;;;;;;;7.13;4.73;;;8.80;99.90;;;;;;4860852;29;20437;-90
2023/09/14 03:58:42;;;;;;;7.07;4.57;;;9.20;99.90;;;;;;4861113;29;20415;-89
2023/09/14 04:01:08;;;;;;;9.73;6.20;;;9.10;99.90;;;;;;4860058;29;20946;-90
2023/09/14 04:03:34;;;;;;;6.28;4.78;;;8.90;99.90;;;;;;4860679;29;20431;-90
2023/09/14 04:05:59;;;;;;;7.72;5.13;;;8.80;99.90;;;;;;4860015;29;20442;-89
2023/09/14 04:08:26;;;;;;;8.73;5.00;;;8.90;99.90;;;;;;4876009;29;20435;-89
2023/09/14 04:10:52;;;;;;;7.28;4.47;;;8.80;99.90;;;;;;4860257;29;20817;-89
2023/09/14 04:13:30;;;;;;;9.43;4.97;;;8.80;99.90;;;;;;4860112;29;20969;-91
2023/09/14 04:15:57;;;;;;;10.82;5.82;;;8.80;99.90;;;;;;4860699;29;20431;-90
2023/09/14 04:18:23;;;;;;;7.23;4.53;;;8.70;99.90;;;;;;4859676;29;20985;-90
2023/09/14 04:20:50;;;;;;;7.25;4.57;;;9.00;99.90;;;;;;4860703;29;20407;-90
2023/09/14 04:23:16;;;;;;;6.57;4.03;;;8.60;99.90;;;;;;4859744;29;20461;-89
2023/09/14 04:25:44;;;;;;;6.10;3.30;;;8.40;99.90;;;;;;4876050;29;20514;-89
2023/09/14 04:28:18;;;;;;;4.40;2.63;;;8.50;99.90;;;;;;4859920;29;20458;-89
2023/09/14 04:30:45;;;;;;;5.13;3.08;;;8.50;99.90;;;;;;4859386;29;20435;-89
2023/09/14 04:33:16;;;;;;;4.25;2.70;;;8.60;99.90;;;;;;4859976;29;20422;-89
2023/09/14 04:35:42;;;;;;;6.32;3.20;;;8.60;99.90;;;;;;4859430;29;20427;-91
2023/09/14 04:38:08;;;;;;;7.27;3.90;;;8.60;99.90;;;;;;4860568;29;20477;-89
2023/09/14 04:40:43;;;;;;;6.65;3.70;;;8.40;99.90;;;;;;4859283;29;20419;-89
2023/09/14 04:43:09;;;;;;;4.65;3.40;;;8.40;99.90;;;;;;4859963;29;20454;-89
2023/09/14 04:45:35;;;;;;;6.93;3.70;;;8.40;99.90;;;;;;4859986;29;20415;-91
2023/09/14 04:48:01;;;;;;;7.47;3.85;;;8.40;99.90;;;;;;4859664;29;20470;-90
2023/09/14 04:50:27;;;;;;;8.95;4.40;;;8.50;99.90;;;;;;4859961;29;20487;-90
2023/09/14 04:52:53;;;;;;;7.80;4.80;;;8.70;99.90;;;;;;4874955;29;21010;-91
2023/09/14 04:55:19;;;;;;;7.57;4.25;;;9.20;99.90;;;;;;4859999;29;20470;-91
2023/09/14 04:57:44;;;;;;;7.18;3.78;;;8.60;99.90;;;;;;4859587;29;20764;-90
2023/09/14 05:00:11;;;;;;;5.47;3.67;;;8.80;99.90;;;;;;4859752;29;20934;-89
2023/09/14 05:02:37;;;;;;;5.05;3.13;;;8.40;99.90;;;;;;4874955;29;20856;-89
2023/09/14 05:05:03;;;;;;;8.50;4.10;;;8.40;99.90;;;;;;4859701;29;20482;-89
2023/09/14 05:07:29;;;;;;;7.63;3.70;;;8.30;99.90;;;;;;4859975;29;20779;-89
2023/09/14 05:09:55;;;;;;;7.40;3.53;;;9.00;99.90;;;;;;4859144;29;20431;-90
2023/09/14 05:12:21;;;;;;;7.15;3.50;;;8.30;99.90;;;;;;4859890;29;20430;-91
2023/09/14 05:14:47;;;;;;;8.37;4.80;;;8.30;99.90;;;;;;4874210;29;20791;-89
2023/09/14 05:17:12;;;;;;;6.30;3.60;;;8.30;99.90;;;;;;4859926;29;20555;-90
2023/09/14 05:19:44;;;;;;;5.68;3.30;;;8.30;99.90;;;;;;4859221;29;20426;-90
2023/09/14 05:22:10;;;;;;;5.50;3.28;;;8.30;99.90;;;;;;4860145;29;20427;-90
2023/09/14 05:24:38;;;;;;;6.43;3.83;;;8.60;99.90;;;;;;4859228;29;20880;-89
2023/09/14 05:27:04;;;;;;;9.35;4.75;;;8.30;99.90;;;;;;4858725;29;20506;-90
2023/09/14 05:29:30;;;;;;;5.63;3.33;;;8.30;99.90;;;;;;4859621;29;20904;-89
2023/09/14 05:31:56;;;;;;;4.83;2.97;;;8.40;99.90;;;;;;4858601;29;20867;-91
2023/09/14 05:34:22;;;;;;;6.40;2.80;;;8.30;99.90;;;;;;4860040;29;20781;-89
2023/09/14 05:36:49;;;;;;;9.50;4.20;;;8.40;99.90;;;;;;4858756;29;20415;-89
2023/09/14 05:39:14;;;;;;;6.05;3.85;;;8.50;99.90;;;;;;4859759;29;20466;-89
2023/09/14 05:41:40;;;;;;;9.02;4.25;;;8.80;99.90;;;;;;4859108;29;20455;-91
2023/09/14 05:44:09;;;;;;;8.85;4.57;;;8.90;99.90;;;;;;4858885;29;20435;-91
2023/09/14 05:46:35;;;;;;;6.33;3.57;;;8.70;99.90;;;;;;4859167;29;20926;-91
2023/09/14 05:49:00;;;;;;;7.20;3.53;;;8.80;99.90;;;;;;4858412;29;20421;-91
2023/09/14 05:51:26;;;;;;;5.37;2.87;;;9.30;99.90;;;;;;4859485;29;20509;-91
2023/09/14 05:53:52;;;;;;;6.13;3.20;;;8.90;99.90;;;;;;4858256;29;20415;-93
2023/09/14 05:56:18;;;;;;;8.13;3.63;;;8.80;99.90;;;;;;4859339;29;20423;-90
2023/09/14 05:58:43;;;;;;;6.13;3.20;;;9.30;99.90;;;;;;4858208;29;20430;-90
2023/09/14 06:01:09;;;;;;;6.93;3.00;;;9.20;99.90;;;;;;4859385;29;20934;-90
2023/09/14 06:03:35;;;;;;;7.20;3.47;;;8.90;99.90;;;;;;4858559;29;20450;-89
2023/09/14 06:06:00;;;;;;;6.72;3.60;;;9.50;99.90;;;;;;4858123;29;20437;-91
2023/09/14 06:08:26;;;;;;;7.67;3.97;;;9.60;99.90;;;;;;4858820;29;20425;-91
2023/09/14 06:10:52;;;;;;;6.33;3.20;;;9.60;99.90;;;;;;4857941;29;20460;-91
2023/09/14 06:13:18;;;;;;;10.32;5.10;;;9.80;99.90;;;;;;4862904;29;20906;-94
2023/09/14 06:15:44;;;;;;;8.63;4.60;;;10.00;99.90;;;;;;4861663;29;20827;-91
2023/09/14 06:18:09;;;;;;;6.05;3.60;;;9.80;99.90;;;;;;4862759;29;20719;-89
2023/09/14 06:20:35;;;;;;;11.95;6.72;;;10.20;99.90;;;;;;4862007;29;20431;-91
2023/09/14 06:23:01;;;;;;;12.50;6.40;;;10.00;99.90;;;;;;4862115;29;20427;-91
2023/09/14 06:25:26;;;;;;;12.02;5.50;;;10.40;99.90;;;;;;4862807;29;20423;-90
2023/09/14 06:27:52;;;;;;;11.52;5.75;;;10.60;99.90;;;;;;4861698;29;20425;-92
2023/09/14 06:30:18;;;;;;;10.17;4.93;;;10.10;99.90;;;;;;4862139;29;20446;-92
2023/09/14 06:32:43;;;;;;;12.32;6.43;;;10.40;99.90;;;;;;4861410;29;20478;-91
2023/09/14 06:35:10;;;;;;;11.05;5.25;;;10.60;99.90;;;;;;4862748;29;20410;-91
2023/09/14 06:37:36;;;;;;;11.07;6.18;;;10.60;99.90;;;;;;4861586;29;20422;-91
2023/09/14 06:40:07;;;;;;;8.83;4.70;;;10.30;99.90;;;;;;4862534;29;20418;-91
2023/09/14 06:42:32;;;;;;;10.05;4.30;;;10.90;99.90;;;;;;4861750;29;20895;-91
2023/09/14 06:44:58;;;;;;;6.93;3.13;;;11.30;99.90;;;;;;4861121;29;20434;-92
2023/09/14 06:47:24;;;;;;;7.27;3.23;;;11.40;99.90;;;;;;4862306;29;20829;-91
2023/09/14 06:49:49;;;;;;;6.45;2.90;;;11.50;99.90;;;;;;4861344;29;20514;-93
2023/09/14 06:52:15;;;;;;;4.47;1.60;;;11.40;99.90;;;;;;4862787;29;20442;-92
2023/09/14 06:54:41;;;;;;;6.10;1.70;;;11.70;99.90;;;;;;4860908;29;20922;-92
2023/09/14 06:57:06;;;;;;;6.50;2.17;;;11.80;99.90;;;;;;4863000;29;20421;-90
2023/09/14 06:59:32;;;;;;;6.07;1.80;;;11.80;99.90;;;;;;4861343;29;20419;-92
2023/09/14 07:01:58;;;;;;;8.03;2.23;;;12.10;99.90;;;;;;4861729;29;20554;-93
2023/09/14 07:04:23;;;;;;;6.32;1.77;;;12.40;99.90;;;;;;4861857;29;20799;-92
2023/09/14 07:06:49;;;;;;;5.13;1.50;;;12.70;99.90;;;;;;4861294;29;20908;-92
2023/09/14 07:09:15;;;;;;;3.90;1.10;;;12.70;99.90;;;;;;4861694;29;20427;-92
2023/09/14 07:11:41;;;;;;;4.53;1.10;;;12.90;99.90;;;;;;4860709;29;20449;-93
2023/09/14 07:14:06;;;;;;;4.65;1.10;;;13.20;99.90;;;;;;4862270;29;20922;-94
2023/09/14 07:16:32;;;;;;;4.47;1.40;;;13.20;99.90;;;;;;4860750;29;20422;-93
2023/09/14 07:18:59;;;;;;;6.60;1.20;;;13.10;99.90;;;;;;4862364;29;21056;-92
2023/09/14 07:21:27;;;;;;;6.73;1.10;;;13.30;99.90;;;;;;4861214;29;20926;-93
2023/09/14 07:23:52;;;;;;;3.88;1.00;;;13.50;99.90;;;;;;4860030;29;20518;-92
2023/09/14 07:26:18;;;;;;;5.63;0.87;;;13.90;99.90;;;;;;4861608;29;20502;-93
2023/09/14 07:28:43;;;;;;;5.65;0.77;;;14.10;99.90;;;;;;4860991;29;20415;-92
2023/09/14 07:31:09;;;;;;;4.77;0.80;;;13.80;99.90;;;;;;4861679;29;20470;-92
2023/09/14 07:33:35;;;;;;;4.38;0.77;;;14.30;99.90;;;;;;4860458;29;20498;-94
2023/09/14 07:36:00;;;;;;;4.43;0.60;;;14.40;99.90;;;;;;4862443;29;20411;-92
2023/09/14 07:38:26;;;;;;;5.23;0.60;;;14.60;99.90;;;;;;4860920;29;20422;-93
2023/09/14 07:40:52;;;;;;;5.35;0.60;;;14.70;99.90;;;;;;4860988;29;21021;-92
2023/09/14 07:43:18;;;;;;;3.30;0.57;;;15.40;99.90;;;;;;4861194;29;20477;-92
2023/09/14 07:45:44;;;;;;;4.40;0.60;;;15.40;99.90;;;;;;4860708;29;20427;-93
2023/09/14 07:48:10;;;;;;;4.22;0.70;;;15.40;99.90;;;;;;4861370;29;20483;-93
2023/09/14 07:50:40;;;;;;;5.70;0.77;;;15.50;99.90;;;;;;4860138;29;20411;-93
2023/09/14 07:53:09;;;;;;;3.45;0.50;;;15.60;99.90;;;;;;4861643;29;20411;-92
2023/09/14 07:55:36;;;;;;;4.63;0.70;;;15.50;99.90;;;;;;4860708;29;20434;-93
2023/09/14 07:58:02;;;;;;;6.22;0.68;;;16.20;99.90;;;;;;4861239;29;20482;-93
2023/09/14 08:00:28;;;;;;;3.53;0.50;;;16.00;99.90;;;;;;4860812;29;20411;-94
2023/09/14 08:02:54;;;;;;;4.68;0.50;;;16.30;99.90;;;;;;4860441;29;20594;-94
2023/09/14 08:05:20;;;;;;;5.15;0.60;;;16.80;99.90;;;;;;4862336;29;21077;-93
2023/09/14 08:07:46;;;;;;;4.45;0.60;;;16.70;99.90;;;;;;4861077;29;20422;-93
2023/09/14 08:10:11;;;;;;;5.27;0.60;;;17.40;99.90;;;;;;4861513;29;20431;-94
2023/09/14 08:12:37;;;;;;;5.30;0.77;;;16.90;99.90;;;;;;4860909;29;20629;-93
2023/09/14 08:15:04;;;;;;;3.80;0.60;;;17.10;99.90;;;;;;4861764;29;20444;-94
2023/09/14 08:17:30;;;;;;;4.77;0.50;;;17.10;99.90;;;;;;4860290;29;20533;-94
2023/09/14 08:19:55;;;;;;;3.43;0.43;;;17.20;99.90;;;;;;4861550;29;20419;-95
2023/09/14 08:22:23;;;;;;;4.53;0.57;;;17.40;98.00;;;;;;4860611;29;20497;-94
2023/09/14 08:24:52;;;;;;;4.90;0.60;;;17.10;95.10;;;;;;4859541;29;20425;-94
2023/09/14 08:27:18;;;;;;;4.15;0.65;;;17.10;97.90;;;;;;4860262;29;20926;-91
2023/09/14 08:29:45;;;;;;;5.70;1.05;;;17.40;92.70;;;;;;4860040;29;20419;-94
2023/09/14 08:32:13;;;;;;;7.03;0.93;;;17.10;99.20;;;;;;4861004;29;20425;-93
2023/09/14 08:34:39;;;;;;;3.47;0.60;;;17.40;98.10;;;;;;4860994;29;20447;-93
2023/09/14 08:37:10;;;;;;;5.53;0.57;;;17.40;96.90;;;;;;4861339;29;20413;-93
2023/09/14 08:39:37;;;;;;;5.90;0.68;;;17.30;93.00;;;;;;4860402;29;20480;-94
2023/09/14 08:42:03;;;;;;;5.03;0.70;;;17.30;97.60;;;;;;4859994;29;20427;-93
2023/09/14 08:44:35;;;;;;;7.32;0.70;;;17.50;93.00;;;;;;4860029;29;20450;-94
2023/09/14 08:47:02;;;;;;;6.80;0.63;;;17.80;99.70;;;;;;4859620;29;20407;-94
2023/09/14 08:49:30;;;;;;;5.50;0.70;;;18.00;91.60;;;;;;4860229;29;20419;-93
2023/09/14 08:51:58;;;;;;;5.80;0.77;;;17.90;94.50;;;;;;4860560;29;20506;-94
2023/09/14 08:54:28;;;;;;;3.90;0.60;;;18.10;86.90;;;;;;4862539;29;20423;-94
2023/09/14 08:56:53;;;;;;;6.35;0.77;;;18.00;89.60;;;;;;4859724;29;20423;-93
2023/09/14 08:59:21;;;;;;;5.72;0.73;;;18.60;91.40;;;;;;4860219;29;20434;-95
2023/09/14 09:01:48;;;;;;;5.20;0.60;;;18.50;91.80;;;;;;4861407;29;20422;-92
2023/09/14 09:04:14;;;;;;;6.57;0.73;;;18.40;91.40;;;;;;4859359;29;20443;-93
2023/09/14 09:06:42;;;;;;;5.78;0.63;;;18.40;90.60;;;;;;4863195;29;20779;-93
2023/09/14 09:09:14;;;;;;;5.35;0.60;;;18.70;86.90;;;;;;4860127;29;20419;-94
2023/09/14 09:11:39;;;;;;;5.97;0.60;;;18.40;80.70;;;;;;4862125;29;20930;-93
2023/09/14 09:14:05;;;;;;;5.07;0.53;;;18.50;76.00;;;;;;4860681;29;20426;-93
2023/09/14 09:16:31;;;;;;;5.70;0.75;;;18.50;82.10;;;;;;4860914;29;20417;-95
2023/09/14 09:19:02;;;;;;;5.45;0.60;;;18.80;85.30;;;;;;4860350;29;20855;-93
2023/09/14 09:21:29;;;;;;;5.30;0.70;;;18.90;93.80;;;;;;4860198;29;20435;-94
2023/09/14 09:23:55;;;;;;;5.68;1.02;;;18.90;91.10;;;;;;4859828;29;20430;-93
2023/09/14 09:26:21;;;;;;;4.73;0.60;;;19.20;76.50;;;;;;4859303;29;20411;-93
2023/09/14 09:28:47;;;;;;;5.03;0.70;;;19.40;88.20;;;;;;4862102;29;20434;-94
2023/09/14 09:31:16;;;;;;;7.03;0.80;;;19.20;77.80;;;;;;4859675;29;20438;-94
2023/09/14 09:33:47;;;;;;;5.55;0.90;;;19.40;69.70;;;;;;4861560;29;20429;-95
2023/09/14 09:36:14;;;;;;;6.72;0.70;;;19.80;66.40;;;;;;4861297;29;20427;-93
2023/09/14 09:38:58;;;;;;;5.13;0.80;;;19.80;71.90;;;;;;4861700;29;20421;-95
2023/09/14 09:41:24;;;;;;;5.80;0.80;;;19.60;72.30;;;;;;4860824;29;20423;-94
2023/09/14 09:43:51;;;;;;;5.73;0.70;;;19.70;74.70;;;;;;4860845;29;20577;-93
2023/09/14 09:46:17;;;;;;;4.43;0.90;;;20.00;73.50;;;;;;4861008;29;20415;-94
2023/09/14 09:48:43;;;;;;;6.20;0.88;;;19.90;71.10;;;;;;4860423;29;20957;-93
2023/09/14 09:51:34;;;;;;;5.05;0.50;;;20.20;67.90;;;;;;4864171;29;20431;-95
2023/09/14 09:54:05;;;;;;;3.88;0.80;;;20.20;62.60;;;;;;4866331;29;20769;-95
2023/09/14 09:57:13;;;;;;;5.60;0.50;;;20.30;72.40;;;;;;4868162;29;20423;-94
2023/09/14 09:59:40;;;;;;;6.07;0.80;;;20.50;61.70;;;;;;4863231;29;20510;-92
2023/09/14 10:02:08;;;;;;;6.63;0.70;;;21.30;61.40;;;;;;4861500;29;20926;-94
2023/09/14 10:04:34;;;;;;;4.40;0.80;;;22.20;55.20;;;;;;4864859;29;20635;-94
2023/09/14 10:07:02;;;;;;;5.30;0.85;;;22.90;52.60;;;;;;4859181;29;20439;-95
2023/09/14 10:09:46;;;;;;;3.60;0.70;;;23.60;54.90;;;;;;4869587;29;20423;-94
2023/09/14 10:12:29;;;;;;;4.78;0.60;;;23.60;50.90;;;;;;4866967;29;20511;-95
2023/09/14 10:15:24;;;;;;;3.20;0.60;;;23.50;49.90;;;;;;4867236;29;20406;-95
2023/09/14 10:17:53;;;;;;;4.40;0.73;;;23.50;49.50;;;;;;4867024;29;20419;-92
2023/09/14 10:21:02;;;;;;;4.67;0.60;;;23.70;50.30;;;;;;4862091;29;20445;-95
2023/09/14 10:23:34;;;;;;;4.80;0.77;;;23.90;49.20;;;;;;4865468;29;20470;-95
2023/09/14 10:25:59;;;;;;;5.68;1.05;;;24.00;50.00;;;;;;4867429;29;20423;-95
2023/09/14 10:28:26;;;;;;;5.55;0.70;;;24.10;47.40;;;;;;4870542;29;20497;-95
2023/09/14 11:06:07;;;;;;;4.60;0.80;;;22.80;61.20;;;;;;5234831;23;20453;-95
2023/09/14 11:15:47;;;;;;;;;;;;;;;;;;;;;
2023/09/14 11:19:00;;;;;;;4.63;0.70;;;24.20;49.00;;;;;;4906479;29;20419;-95
2023/09/14 11:22:22;;;;;;;5.68;1.10;;;24.70;53.30;;;;;;4896977;29;20479;-95
2023/09/14 11:25:59;;;;;;;4.60;0.87;;;25.20;52.20;;;;;;4806153;29;20482;-95
2023/09/14 11:28:31;;;;;;;4.72;1.00;;;25.60;52.60;;;;;;4789391;29;20417;-95
2023/09/14 11:31:08;;;;;;;5.50;1.10;;;26.10;48.20;;;;;;4795431;29;21008;-94
2023/09/14 11:33:54;;;;;;;4.97;0.95;;;26.50;47.10;;;;;;4794076;29;20441;-95
2023/09/14 11:37:05;;;;;;;4.75;1.08;;;26.80;46.60;;;;;;4817714;29;20497;-95
2023/09/14 11:39:40;;;;;;;5.20;1.02;;;27.10;44.30;;;;;;4813820;29;20438;-95
2023/09/14 11:43:20;;;;;;;;;;;;;;;;;;;;;
2023/09/14 11:46:01;;;;;;;5.10;1.20;;;27.00;45.20;;;;;;4793616;29;20889;-95
2023/09/14 11:48:35;;;;;;;4.68;1.10;;;27.00;43.60;;;;;;4788409;29;20442;-95
2023/09/14 11:51:03;;;;;;;5.22;1.27;;;27.10;43.60;;;;;;4864455;29;20502;-94
2023/09/14 11:53:33;;;;;;;6.20;1.00;;;27.10;43.50;;;;;;4878268;29;20983;-95
2023/09/14 11:55:59;;;;;;;6.75;1.13;;;27.20;42.60;;;;;;4880128;29;20431;-95
2023/09/14 11:58:25;;;;;;;6.63;1.27;;;27.30;43.70;;;;;;4870593;29;20423;-94
2023/09/14 12:01:03;;;;;;;5.00;1.03;;;27.40;44.40;;;;;;4877361;29;20430;-95
2023/09/14 12:03:30;;;;;;;4.95;1.08;;;27.90;45.00;;;;;;4871301;29;20518;-95
2023/09/14 12:05:56;;;;;;;4.32;0.90;;;28.10;42.10;;;;;;4875458;29;20418;-94
2023/09/14 12:08:41;;;;;;;5.93;1.20;;;28.40;45.20;;;;;;4872132;29;20423;-95
2023/09/14 12:11:07;;;;;;;3.80;1.20;;;28.70;40.40;;;;;;4876143;29;20437;-94
2023/09/14 12:13:33;;;;;;;4.63;0.90;;;28.50;39.30;;;;;;4873269;29;20506;-95
2023/09/14 12:16:01;;;;;;;5.38;1.15;;;27.80;42.30;;;;;;4879379;29;20497;-93
2023/09/14 12:18:41;;;;;;;4.70;1.20;;;27.00;42.20;;;;;;4879793;29;20416;-94
2023/09/14 12:21:09;;;;;;;5.00;0.80;;;26.50;44.20;;;;;;4880216;29;20482;-94
2023/09/14 12:23:38;;;;;;;5.82;1.20;;;25.90;43.00;;;;;;4877835;29;20445;-94
2023/09/14 12:26:05;;;;;;;5.53;1.20;;;25.20;47.00;;;;;;4879964;29;20417;-94
2023/09/14 12:28:30;;;;;;;6.33;1.10;;;24.90;48.50;;;;;;4877528;29;20413;-93
2023/09/14 12:30:56;;;;;;;5.38;1.00;;;24.00;49.80;;;;;;4880922;29;21111;-94
2023/09/14 12:33:49;;;;;;;5.10;1.02;;;24.00;51.70;;;;;;4881596;29;20436;-94
2023/09/14 12:36:29;;;;;;;7.10;1.20;;;23.60;50.40;;;;;;4856505;29;20425;-95
2023/09/14 12:38:55;;;;;;;5.78;1.13;;;23.20;49.70;;;;;;4887981;29;20421;-95
2023/09/14 12:41:25;;;;;;;5.80;1.27;;;22.90;50.40;;;;;;4884160;29;20418;-94
2023/09/14 12:44:18;;;;;;;5.97;1.30;;;22.90;54.50;;;;;;4884373;29;20472;-95
2023/09/14 12:49:36;;;;;;;6.15;1.30;;;25.00;49.40;;;;;;5082238;23;20448;-94
2023/09/14 12:52:06;;;;;;;6.28;1.33;;;25.80;51.80;;;;;;4858202;29;20435;-95
2023/09/14 12:54:31;;;;;;;4.72;0.93;;;25.90;46.60;;;;;;4861644;29;20451;-94
2023/09/14 12:56:57;;;;;;;5.63;1.42;;;25.70;46.90;;;;;;4862113;29;20456;-94
2023/09/14 12:59:40;;;;;;;;;;;;;;;;;;;;;
2023/09/14 13:02:13;;;;;;;4.65;1.00;;;26.20;45.00;;;;;;4878568;29;20421;-94
2023/09/14 13:04:39;;;;;;;3.35;1.10;;;26.50;46.20;;;;;;4863806;29;20498;-94
2023/09/14 13:07:05;;;;;;;4.37;0.90;;;26.50;48.40;;;;;;4861536;29;20514;-95
2023/09/14 13:09:37;;;;;;;4.63;1.20;;;26.20;47.00;;;;;;4864962;29;20410;-95
2023/09/14 13:12:05;;;;;;;5.50;1.52;;;25.70;45.00;;;;;;4865473;29;20471;-94
2023/09/14 13:17:22;;;;;;;5.22;1.40;;;25.10;46.00;;;;;;4877219;29;20451;-95
2023/09/14 13:20:55;;;;;;;6.20;1.60;;;24.30;48.70;;;;;;4864018;29;20422;-95
2023/09/14 13:23:23;;;;;;;5.07;1.70;;;23.80;48.50;;;;;;4876653;29;20509;-94
2023/09/14 13:25:49;;;;;;;5.73;1.60;;;23.30;49.80;;;;;;4862590;29;20458;-94
2023/09/14 13:28:15;;;;;;;4.40;1.40;;;24.00;48.50;;;;;;4863021;29;20498;-95
2023/09/14 13:30:41;;;;;;;6.43;1.40;;;24.70;48.80;;;;;;4863821;29;20483;-94
2023/09/14 13:33:06;;;;;;;4.88;1.33;;;25.20;48.40;;;;;;4872333;29;20434;-94
2023/09/14 13:36:33;;;;;;;6.55;1.55;;;25.20;46.60;;;;;;4869144;29;20830;-95
2023/09/14 13:39:00;;;;;;;5.93;1.83;;;24.90;45.70;;;;;;4758561;29;20432;-94
2023/09/14 13:41:26;;;;;;;5.20;1.38;;;24.60;48.20;;;;;;4790489;29;20429;-94
2023/09/14 13:43:52;;;;;;;5.40;1.60;;;23.90;47.30;;;;;;4827041;29;20435;-94
2023/09/14 13:46:27;;;;;;;5.47;1.50;;;23.90;47.90;;;;;;4863332;29;20786;-95
2023/09/14 13:48:57;;;;;;;4.63;1.43;;;23.60;46.60;;;;;;4862559;29;20414;-95